sensor_id;sensor_type;location;lat;lon;timestamp;pressure;altitude;pressure_sealevel;temperature;humidity
55604;BME280;41468;48.838;9.330;2022-07-21T00:00:25;98606.56;;;20.45;100.00
55604;BME280;41468;48.838;9.330;2022-07-21T00:02:56;98600.56;;;20.62;100.00
55604;BME280;41468;48.838;9.330;2022-07-21T00:05:29;98598.31;;;20.57;100.00
55604;BME280;41468;48.838;9.330;2022-07-21T00:07:58;98598.50;;;20.50;100.00
55604;BME280;41468;48.838;9.330;2022-07-21T00:10:28;98592.69;;;20.45;100.00
55604;BME280;41468;48.838;9.330;2022-07-21T00:12:58;98575.41;;;20.53;100.00
55604;BME280;41468;48.838;9.330;2022-07-21T00:15:28;98580.59;;;20.51;100.00
55604;BME280;41468;48.838;9.330;2022-07-21T00:17:59;98593.09;;;20.43;100.00
55604;BME280;41468;48.838;9.330;2022-07-21T00:20:32;98601.19;;;20.37;100.00
55604;BME280;41468;48.838;9.330;2022-07-21T00:23:03;98607.16;;;20.36;100.00
55604;BME280;41468;48.838;9.330;2022-07-21T00:25:32;98595.63;;;20.37;100.00
55604;BME280;41468;48.838;9.330;2022-07-21T00:28:03;98595.16;;;20.23;100.00
55604;BME280;41468;48.838;9.330;2022-07-21T00:30:33;98597.34;;;20.31;100.00
55604;BME280;41468;48.838;9.330;2022-07-21T00:33:03;98594.19;;;20.29;100.00
55604;BME280;41468;48.838;9.330;2022-07-21T00:35:36;98610.63;;;20.40;100.00
55604;BME280;41468;48.838;9.330;2022-07-21T00:38:06;98623.88;;;20.32;100.00
55604;BME280;41468;48.838;9.330;2022-07-21T00:40:35;98632.16;;;20.36;100.00
55604;BME280;41468;48.838;9.330;2022-07-21T00:43:05;98621.44;;;20.18;100.00
55604;BME280;41468;48.838;9.330;2022-07-21T00:45:35;98619.56;;;20.31;100.00
55604;BME280;41468;48.838;9.330;2022-07-21T00:48:05;98619.28;;;20.26;100.00
55604;BME280;41468;48.838;9.330;2022-07-21T00:50:38;98609.06;;;20.23;100.00
55604;BME280;41468;48.838;9.330;2022-07-21T00:53:08;98618.06;;;20.27;100.00
55604;BME280;41468;48.838;9.330;2022-07-21T00:55:41;98613.22;;;20.31;100.00
55604;BME280;41468;48.838;9.330;2022-07-21T00:58:13;98601.41;;;20.27;100.00
55604;BME280;41468;48.838;9.330;2022-07-21T01:00:43;98593.16;;;20.07;100.00
55604;BME280;41468;48.838;9.330;2022-07-21T01:03:12;98595.81;;;20.10;100.00
55604;BME280;41468;48.838;9.330;2022-07-21T01:05:45;98592.69;;;20.08;100.00
55604;BME280;41468;48.838;9.330;2022-07-21T01:08:15;98587.47;;;19.94;100.00
55604;BME280;41468;48.838;9.330;2022-07-21T01:10:45;98598.88;;;20.16;100.00
55604;BME280;41468;48.838;9.330;2022-07-21T01:13:15;98596.44;;;20.18;100.00
55604;BME280;41468;48.838;9.330;2022-07-21T01:15:45;98593.31;;;20.16;100.00
55604;BME280;41468;48.838;9.330;2022-07-21T01:18:15;98605.41;;;20.26;100.00
55604;BME280;41468;48.838;9.330;2022-07-21T01:20:51;98615.97;;;20.14;100.00
55604;BME280;41468;48.838;9.330;2022-07-21T01:23:24;98618.66;;;20.18;100.00
55604;BME280;41468;48.838;9.330;2022-07-21T01:25:54;98626.41;;;20.27;100.00
55604;BME280;41468;48.838;9.330;2022-07-21T01:28:23;98623.97;;;20.29;100.00
55604;BME280;41468;48.838;9.330;2022-07-21T01:30:53;98613.53;;;20.16;100.00
55604;BME280;41468;48.838;9.330;2022-07-21T01:33:23;98622.63;;;20.17;100.00
55604;BME280;41468;48.838;9.330;2022-07-21T01:35:53;98629.00;;;20.17;100.00
55604;BME280;41468;48.838;9.330;2022-07-21T01:38:25;98628.28;;;20.13;100.00
55604;BME280;41468;48.838;9.330;2022-07-21T01:41:07;98620.31;;;20.15;100.00
55604;BME280;41468;48.838;9.330;2022-07-21T01:43:51;98632.78;;;20.07;100.00
55604;BME280;41468;48.838;9.330;2022-07-21T01:46:21;98642.84;;;20.01;100.00
55604;BME280;41468;48.838;9.330;2022-07-21T01:48:51;98630.88;;;20.04;100.00
55604;BME280;41468;48.838;9.330;2022-07-21T01:51:21;98631.75;;;20.01;100.00
55604;BME280;41468;48.838;9.330;2022-07-21T01:53:53;98644.75;;;20.04;100.00
55604;BME280;41468;48.838;9.330;2022-07-21T01:56:24;98656.91;;;20.10;100.00
55604;BME280;41468;48.838;9.330;2022-07-21T01:58:56;98656.91;;;20.10;100.00
55604;BME280;41468;48.838;9.330;2022-07-21T02:01:27;98660.97;;;20.06;100.00
55604;BME280;41468;48.838;9.330;2022-07-21T02:04:04;98660.09;;;20.09;100.00
55604;BME280;41468;48.838;9.330;2022-07-21T02:06:34;98677.63;;;20.06;100.00
55604;BME280;41468;48.838;9.330;2022-07-21T02:09:07;98674.06;;;20.05;100.00
55604;BME280;41468;48.838;9.330;2022-07-21T02:11:37;98686.81;;;20.03;100.00
55604;BME280;41468;48.838;9.330;2022-07-21T02:14:07;98677.63;;;20.06;100.00
55604;BME280;41468;48.838;9.330;2022-07-21T02:16:37;98670.59;;;20.01;100.00
55604;BME280;41468;48.838;9.330;2022-07-21T02:19:08;98671.94;;;20.13;100.00
55604;BME280;41468;48.838;9.330;2022-07-21T02:21:38;98670.06;;;20.06;100.00
55604;BME280;41468;48.838;9.330;2022-07-21T02:24:10;98660.69;;;20.00;100.00
55604;BME280;41468;48.838;9.330;2022-07-21T02:26:40;98645.81;;;20.10;100.00
55604;BME280;41468;48.838;9.330;2022-07-21T02:29:10;98652.91;;;20.11;100.00
55604;BME280;41468;48.838;9.330;2022-07-21T02:31:40;98654.84;;;20.14;100.00
55604;BME280;41468;48.838;9.330;2022-07-21T02:34:10;98654.63;;;20.05;100.00
55604;BME280;41468;48.838;9.330;2022-07-21T02:36:39;98655.50;;;20.02;100.00
55604;BME280;41468;48.838;9.330;2022-07-21T02:39:12;98660.91;;;20.09;100.00
55604;BME280;41468;48.838;9.330;2022-07-21T02:41:42;98668.78;;;20.11;100.00
55604;BME280;41468;48.838;9.330;2022-07-21T02:44:12;98665.19;;;19.94;100.00
55604;BME280;41468;48.838;9.330;2022-07-21T02:46:42;98672.56;;;20.01;100.00
55604;BME280;41468;48.838;9.330;2022-07-21T02:49:12;98675.84;;;20.15;100.00
55604;BME280;41468;48.838;9.330;2022-07-21T02:51:41;98659.91;;;20.00;100.00
55604;BME280;41468;48.838;9.330;2022-07-21T02:54:14;98663.47;;;20.00;100.00
55604;BME280;41468;48.838;9.330;2022-07-21T02:56:44;98670.66;;;19.98;100.00
55604;BME280;41468;48.838;9.330;2022-07-21T02:59:13;98661.19;;;20.15;100.00
55604;BME280;41468;48.838;9.330;2022-07-21T03:01:43;98664.00;;;20.11;100.00
55604;BME280;41468;48.838;9.330;2022-07-21T03:04:13;98657.41;;;20.05;100.00
55604;BME280;41468;48.838;9.330;2022-07-21T03:06:43;98652.59;;;19.89;100.00
55604;BME280;41468;48.838;9.330;2022-07-21T03:09:15;98649.59;;;20.00;100.00
55604;BME280;41468;48.838;9.330;2022-07-21T03:11:45;98660.50;;;19.91;100.00
55604;BME280;41468;48.838;9.330;2022-07-21T03:14:15;98660.34;;;19.98;100.00
55604;BME280;41468;48.838;9.330;2022-07-21T03:16:45;98670.78;;;20.10;100.00
55604;BME280;41468;48.838;9.330;2022-07-21T03:19:14;98668.19;;;20.19;100.00
55604;BME280;41468;48.838;9.330;2022-07-21T03:21:44;98658.19;;;20.06;100.00
55604;BME280;41468;48.838;9.330;2022-07-21T03:24:17;98665.06;;;20.01;100.00
55604;BME280;41468;48.838;9.330;2022-07-21T03:26:46;98662.22;;;19.85;100.00
55604;BME280;41468;48.838;9.330;2022-07-21T03:29:16;98672.56;;;20.01;100.00
55604;BME280;41468;48.838;9.330;2022-07-21T03:31:46;98675.63;;;20.06;100.00
55604;BME280;41468;48.838;9.330;2022-07-21T03:34:16;98679.22;;;20.07;100.00
55604;BME280;41468;48.838;9.330;2022-07-21T03:36:46;98686.44;;;20.01;100.00
55604;BME280;41468;48.838;9.330;2022-07-21T03:39:18;98691.19;;;20.04;100.00
55604;BME280;41468;48.838;9.330;2022-07-21T03:41:48;98697.16;;;20.02;100.00
55604;BME280;41468;48.838;9.330;2022-07-21T03:44:18;98699.41;;;20.07;100.00
55604;BME280;41468;48.838;9.330;2022-07-21T03:46:47;98704.75;;;19.98;100.00
55604;BME280;41468;48.838;9.330;2022-07-21T03:49:17;98704.84;;;19.94;100.00
55604;BME280;41468;48.838;9.330;2022-07-21T03:51:47;98711.59;;;19.93;100.00
55604;BME280;41468;48.838;9.330;2022-07-21T03:54:19;98721.50;;;19.94;100.00
55604;BME280;41468;48.838;9.330;2022-07-21T03:56:49;98720.72;;;19.94;100.00
55604;BME280;41468;48.838;9.330;2022-07-21T03:59:19;98715.16;;;19.94;100.00
55604;BME280;41468;48.838;9.330;2022-07-21T04:01:49;98707.69;;;19.91;100.00
55604;BME280;41468;48.838;9.330;2022-07-21T04:04:19;98704.91;;;19.91;100.00
55604;BME280;41468;48.838;9.330;2022-07-21T04:06:48;98712.81;;;19.92;100.00
55604;BME280;41468;48.838;9.330;2022-07-21T04:09:21;98719.28;;;19.86;100.00
55604;BME280;41468;48.838;9.330;2022-07-21T04:11:51;98725.53;;;19.90;100.00
55604;BME280;41468;48.838;9.330;2022-07-21T04:14:21;98729.16;;;19.87;100.00
55604;BME280;41468;48.838;9.330;2022-07-21T04:16:50;98723.28;;;19.85;100.00
55604;BME280;41468;48.838;9.330;2022-07-21T04:19:20;98720.50;;;19.85;100.00
55604;BME280;41468;48.838;9.330;2022-07-21T04:21:50;98724.13;;;19.82;100.00
55604;BME280;41468;48.838;9.330;2022-07-21T04:24:22;98727.53;;;19.89;100.00
55604;BME280;41468;48.838;9.330;2022-07-21T04:26:52;98726.75;;;19.89;100.00
55604;BME280;41468;48.838;9.330;2022-07-21T04:29:28;98735.28;;;19.78;100.00
55604;BME280;41468;48.838;9.330;2022-07-21T04:31:58;98738.28;;;19.87;100.00
55604;BME280;41468;48.838;9.330;2022-07-21T04:34:28;98740.50;;;19.96;100.00
55604;BME280;41468;48.838;9.330;2022-07-21T04:36:58;98742.84;;;19.98;100.00
55604;BME280;41468;48.838;9.330;2022-07-21T04:39:31;98737.78;;;19.92;100.00
55604;BME280;41468;48.838;9.330;2022-07-21T04:42:01;98726.19;;;19.98;100.00
55604;BME280;41468;48.838;9.330;2022-07-21T04:44:30;98723.69;;;20.03;100.00
55604;BME280;41468;48.838;9.330;2022-07-21T04:47:00;98731.81;;;19.94;100.00
55604;BME280;41468;48.838;9.330;2022-07-21T04:49:30;98740.00;;;20.01;100.00
55604;BME280;41468;48.838;9.330;2022-07-21T04:52:00;98745.03;;;20.06;100.00
55604;BME280;41468;48.838;9.330;2022-07-21T04:54:33;98752.16;;;20.07;100.00
55604;BME280;41468;48.838;9.330;2022-07-21T04:57:03;98740.28;;;20.07;100.00
55604;BME280;41468;48.838;9.330;2022-07-21T04:59:34;98746.63;;;20.07;100.00
55604;BME280;41468;48.838;9.330;2022-07-21T05:02:05;98747.97;;;19.99;100.00
55604;BME280;41468;48.838;9.330;2022-07-21T05:04:35;98741.63;;;19.99;100.00
55604;BME280;41468;48.838;9.330;2022-07-21T05:07:05;98752.50;;;19.89;100.00
55604;BME280;41468;48.838;9.330;2022-07-21T05:09:37;98749.44;;;19.84;100.00
55604;BME280;41468;48.838;9.330;2022-07-21T05:12:08;98743.78;;;19.91;100.00
55604;BME280;41468;48.838;9.330;2022-07-21T05:14:38;98744.25;;;20.06;100.00
55604;BME280;41468;48.838;9.330;2022-07-21T05:17:08;98742.44;;;20.35;100.00
55604;BME280;41468;48.838;9.330;2022-07-21T05:19:37;98746.59;;;20.47;100.00
55604;BME280;41468;48.838;9.330;2022-07-21T05:22:08;98752.81;;;20.88;100.00
55604;BME280;41468;48.838;9.330;2022-07-21T05:24:40;98754.19;;;21.90;98.25
55604;BME280;41468;48.838;9.330;2022-07-21T05:27:10;98754.56;;;23.37;87.52
55604;BME280;41468;48.838;9.330;2022-07-21T05:29:40;98750.03;;;24.62;79.47
55604;BME280;41468;48.838;9.330;2022-07-21T05:32:10;98762.63;;;25.57;74.28
55604;BME280;41468;48.838;9.330;2022-07-21T05:34:40;98753.59;;;26.17;69.74
55604;BME280;41468;48.838;9.330;2022-07-21T05:37:09;98757.47;;;26.71;66.40
55604;BME280;41468;48.838;9.330;2022-07-21T05:39:42;98751.25;;;27.34;64.83
55604;BME280;41468;48.838;9.330;2022-07-21T05:42:11;98752.63;;;27.38;62.95
55604;BME280;41468;48.838;9.330;2022-07-21T05:44:41;98758.63;;;27.55;62.92
55604;BME280;41468;48.838;9.330;2022-07-21T05:47:11;98765.50;;;27.54;62.96
55604;BME280;41468;48.838;9.330;2022-07-21T05:49:41;98763.13;;;28.31;60.66
55604;BME280;41468;48.838;9.330;2022-07-21T05:52:11;98767.50;;;28.32;60.59
55604;BME280;41468;48.838;9.330;2022-07-21T05:54:43;98763.59;;;28.73;59.34
55604;BME280;41468;48.838;9.330;2022-07-21T05:57:13;98769.38;;;29.00;57.90
55604;BME280;41468;48.838;9.330;2022-07-21T05:59:44;98780.75;;;28.31;58.44
55604;BME280;41468;48.838;9.330;2022-07-21T06:02:14;98778.91;;;27.26;62.96
55604;BME280;41468;48.838;9.330;2022-07-21T06:04:44;98788.09;;;26.51;64.17
55604;BME280;41468;48.838;9.330;2022-07-21T06:07:14;98791.09;;;25.83;67.35
55604;BME280;41468;48.838;9.330;2022-07-21T06:09:46;98795.31;;;25.78;68.04
55604;BME280;41468;48.838;9.330;2022-07-21T06:12:16;98796.47;;;25.40;70.03
55604;BME280;41468;48.838;9.330;2022-07-21T06:14:46;98798.59;;;25.09;72.70
55604;BME280;41468;48.838;9.330;2022-07-21T06:17:16;98809.38;;;24.35;74.52
55604;BME280;41468;48.838;9.330;2022-07-21T06:19:46;98805.50;;;23.63;78.46
55604;BME280;41468;48.838;9.330;2022-07-21T06:22:15;98803.56;;;23.12;82.42
55604;BME280;41468;48.838;9.330;2022-07-21T06:24:48;98802.00;;;22.86;82.93
55604;BME280;41468;48.838;9.330;2022-07-21T06:27:18;98805.81;;;22.92;82.91
55604;BME280;41468;48.838;9.330;2022-07-21T06:29:47;98803.81;;;22.92;84.15
55604;BME280;41468;48.838;9.330;2022-07-21T06:32:17;98801.78;;;22.93;85.66
55604;BME280;41468;48.838;9.330;2022-07-21T06:34:48;98809.03;;;22.90;85.84
55604;BME280;41468;48.838;9.330;2022-07-21T06:37:17;98801.91;;;22.76;85.16
55604;BME280;41468;48.838;9.330;2022-07-21T06:39:50;98803.38;;;22.94;83.78
55604;BME280;41468;48.838;9.330;2022-07-21T06:42:20;98810.63;;;22.91;85.30
55604;BME280;41468;48.838;9.330;2022-07-21T06:44:50;98808.03;;;22.71;86.98
55604;BME280;41468;48.838;9.330;2022-07-21T06:47:20;98799.66;;;22.71;87.35
55604;BME280;41468;48.838;9.330;2022-07-21T06:49:50;98804.03;;;22.72;87.34
55604;BME280;41468;48.838;9.330;2022-07-21T06:52:20;98801.63;;;22.58;87.88
55604;BME280;41468;48.838;9.330;2022-07-21T06:54:52;98804.38;;;22.32;85.69
55604;BME280;41468;48.838;9.330;2022-07-21T06:57:22;98820.44;;;22.41;85.54
55604;BME280;41468;48.838;9.330;2022-07-21T06:59:52;98812.41;;;22.01;88.40
55604;BME280;41468;48.838;9.330;2022-07-21T07:02:22;98806.97;;;21.94;85.81
55604;BME280;41468;48.838;9.330;2022-07-21T07:04:52;98810.88;;;21.84;87.52
55604;BME280;41468;48.838;9.330;2022-07-21T07:07:27;98809.31;;;22.12;89.89
55604;BME280;41468;48.838;9.330;2022-07-21T07:10:01;98811.25;;;22.70;86.42
55604;BME280;41468;48.838;9.330;2022-07-21T07:12:32;98805.13;;;22.88;83.89
55604;BME280;41468;48.838;9.330;2022-07-21T07:15:23;98810.59;;;23.30;83.15
55604;BME280;41468;48.838;9.330;2022-07-21T07:17:53;98813.03;;;23.40;82.03
55604;BME280;41468;48.838;9.330;2022-07-21T07:20:23;98815.56;;;23.60;77.97
55604;BME280;41468;48.838;9.330;2022-07-21T07:22:53;98811.19;;;23.72;77.36
55604;BME280;41468;48.838;9.330;2022-07-21T07:25:25;98818.19;;;23.77;77.17
55604;BME280;41468;48.838;9.330;2022-07-21T07:27:58;98818.28;;;23.38;77.83
55604;BME280;41468;48.838;9.330;2022-07-21T07:30:28;98822.53;;;23.17;79.76
55604;BME280;41468;48.838;9.330;2022-07-21T07:32:58;98815.28;;;23.45;74.96
55604;BME280;41468;48.838;9.330;2022-07-21T07:35:28;98818.66;;;23.75;74.29
55604;BME280;41468;48.838;9.330;2022-07-21T07:37:58;98819.94;;;23.96;75.58
55604;BME280;41468;48.838;9.330;2022-07-21T07:40:30;98819.75;;;23.90;71.36
55604;BME280;41468;48.838;9.330;2022-07-21T07:43:03;98824.78;;;23.83;72.65
55604;BME280;41468;48.838;9.330;2022-07-21T07:45:33;98820.03;;;23.92;71.63
55604;BME280;41468;48.838;9.330;2022-07-21T07:48:05;98813.66;;;24.27;72.33
55604;BME280;41468;48.838;9.330;2022-07-21T07:50:35;98814.75;;;24.51;71.96
55604;BME280;41468;48.838;9.330;2022-07-21T07:53:05;98821.00;;;24.55;69.74
55604;BME280;41468;48.838;9.330;2022-07-21T07:55:37;98811.44;;;24.66;67.09
55604;BME280;41468;48.838;9.330;2022-07-21T07:58:07;98821.88;;;24.74;68.90
55604;BME280;41468;48.838;9.330;2022-07-21T08:00:37;98819.38;;;24.98;66.02
55604;BME280;41468;48.838;9.330;2022-07-21T08:03:23;98818.19;;;25.18;63.45
55604;BME280;41468;48.838;9.330;2022-07-21T08:05:55;98816.50;;;25.20;64.68
55604;BME280;41468;48.838;9.330;2022-07-21T08:08:26;98816.81;;;25.22;67.99
55604;BME280;41468;48.838;9.330;2022-07-21T08:10:58;98812.09;;;25.10;67.50
55604;BME280;41468;48.838;9.330;2022-07-21T08:13:28;98819.72;;;24.78;67.63
55604;BME280;41468;48.838;9.330;2022-07-21T08:15:58;98822.38;;;24.51;68.90
55604;BME280;41468;48.838;9.330;2022-07-21T08:18:28;98821.41;;;24.45;69.82
55604;BME280;41468;48.838;9.330;2022-07-21T08:20:58;98811.13;;;24.20;68.68
55604;BME280;41468;48.838;9.330;2022-07-21T08:23:28;98818.44;;;24.04;70.51
55604;BME280;41468;48.838;9.330;2022-07-21T08:26:00;98819.81;;;24.44;65.92
55604;BME280;41468;48.838;9.330;2022-07-21T08:28:30;98820.00;;;24.49;67.14
55604;BME280;41468;48.838;9.330;2022-07-21T08:31:00;98816.13;;;24.25;68.67
55604;BME280;41468;48.838;9.330;2022-07-21T08:33:30;98811.53;;;24.31;67.70
55604;BME280;41468;48.838;9.330;2022-07-21T08:36:00;98817.25;;;24.14;69.41
55604;BME280;41468;48.838;9.330;2022-07-21T08:38:29;98813.91;;;24.20;70.82
55604;BME280;41468;48.838;9.330;2022-07-21T08:41:02;98821.47;;;24.32;69.19
55604;BME280;41468;48.838;9.330;2022-07-21T08:43:34;98827.66;;;24.14;71.08
55604;BME280;41468;48.838;9.330;2022-07-21T08:46:04;98816.72;;;23.85;71.50
55604;BME280;41468;48.838;9.330;2022-07-21T08:48:36;98816.09;;;23.68;71.68
55604;BME280;41468;48.838;9.330;2022-07-21T08:51:06;98810.56;;;23.55;72.76
55604;BME280;41468;48.838;9.330;2022-07-21T08:53:36;98812.13;;;23.31;72.02
55604;BME280;41468;48.838;9.330;2022-07-21T08:56:09;98808.59;;;23.17;73.43
55604;BME280;41468;48.838;9.330;2022-07-21T08:58:39;98816.19;;;23.04;73.52
55604;BME280;41468;48.838;9.330;2022-07-21T09:01:09;98813.94;;;22.99;74.77
55604;BME280;41468;48.838;9.330;2022-07-21T09:03:39;98808.16;;;23.06;74.85
55604;BME280;41468;48.838;9.330;2022-07-21T09:06:10;98812.75;;;23.13;74.39
55604;BME280;41468;48.838;9.330;2022-07-21T09:08:43;98818.50;;;23.57;71.50
55604;BME280;41468;48.838;9.330;2022-07-21T09:11:18;98806.38;;;24.07;68.64
55604;BME280;41468;48.838;9.330;2022-07-21T09:13:50;98808.84;;;24.49;67.19
55604;BME280;41468;48.838;9.330;2022-07-21T09:16:35;98804.63;;;24.98;65.71
55604;BME280;41468;48.838;9.330;2022-07-21T09:19:06;98805.75;;;25.10;65.01
55604;BME280;41468;48.838;9.330;2022-07-21T09:21:36;98797.59;;;24.93;66.38
55604;BME280;41468;48.838;9.330;2022-07-21T09:24:17;98808.38;;;25.04;61.46
55604;BME280;41468;48.838;9.330;2022-07-21T09:27:02;98809.88;;;25.45;62.89
55604;BME280;41468;48.838;9.330;2022-07-21T09:29:38;98798.41;;;25.53;61.49
55604;BME280;41468;48.838;9.330;2022-07-21T09:32:16;98806.69;;;25.93;58.49
55604;BME280;41468;48.838;9.330;2022-07-21T09:34:48;98803.88;;;25.93;59.77
55604;BME280;41468;48.838;9.330;2022-07-21T09:37:18;98797.31;;;25.59;59.44
55604;BME280;41468;48.838;9.330;2022-07-21T09:39:50;98797.94;;;25.63;58.70
55604;BME280;41468;48.838;9.330;2022-07-21T09:42:25;98799.03;;;25.94;56.96
55604;BME280;41468;48.838;9.330;2022-07-21T09:44:58;98798.13;;;26.24;56.49
55604;BME280;41468;48.838;9.330;2022-07-21T09:47:29;98800.75;;;25.91;57.92
55604;BME280;41468;48.838;9.330;2022-07-21T09:50:01;98799.81;;;25.57;59.40
55604;BME280;41468;48.838;9.330;2022-07-21T09:52:53;98795.13;;;25.54;58.46
55604;BME280;41468;48.838;9.330;2022-07-21T09:55:25;98802.47;;;25.88;57.43
55604;BME280;41468;48.838;9.330;2022-07-21T09:57:58;98805.88;;;26.02;55.61
55604;BME280;41468;48.838;9.330;2022-07-21T10:00:28;98800.13;;;26.24;54.12
55604;BME280;41468;48.838;9.330;2022-07-21T10:02:58;98789.06;;;26.39;50.97
55604;BME280;41468;48.838;9.330;2022-07-21T10:05:28;98797.22;;;26.70;53.21
55604;BME280;41468;48.838;9.330;2022-07-21T10:08:02;98801.28;;;26.69;54.19
55604;BME280;41468;48.838;9.330;2022-07-21T10:10:33;98791.09;;;26.29;52.69
55604;BME280;41468;48.838;9.330;2022-07-21T10:13:26;98791.56;;;26.09;54.24
55604;BME280;41468;48.838;9.330;2022-07-21T10:15:57;98788.75;;;26.00;54.48
55604;BME280;41468;48.838;9.330;2022-07-21T10:18:30;98788.78;;;25.91;56.15
55604;BME280;41468;48.838;9.330;2022-07-21T10:21:06;98786.13;;;25.87;54.96
55604;BME280;41468;48.838;9.330;2022-07-21T10:23:40;98783.00;;;25.76;54.12
55604;BME280;41468;48.838;9.330;2022-07-21T10:26:11;98786.47;;;26.17;55.30
55604;BME280;41468;48.838;9.330;2022-07-21T10:28:43;98780.81;;;26.35;53.72
55604;BME280;41468;48.838;9.330;2022-07-21T10:31:15;98776.22;;;26.65;49.40
55604;BME280;41468;48.838;9.330;2022-07-21T10:33:56;98771.91;;;26.46;52.48
55604;BME280;41468;48.838;9.330;2022-07-21T10:36:43;98771.94;;;26.09;54.02
55604;BME280;41468;48.838;9.330;2022-07-21T10:39:28;98778.19;;;25.67;55.72
55604;BME280;41468;48.838;9.330;2022-07-21T10:42:13;98764.75;;;25.43;57.13
55604;BME280;41468;48.838;9.330;2022-07-21T10:44:47;98771.88;;;25.35;57.53
55604;BME280;41468;48.838;9.330;2022-07-21T10:47:19;98760.91;;;25.69;56.60
55604;BME280;41468;48.838;9.330;2022-07-21T10:49:54;98768.69;;;26.20;55.91
55604;BME280;41468;48.838;9.330;2022-07-21T10:52:55;98764.72;;;26.96;55.32
55604;BME280;41468;48.838;9.330;2022-07-21T10:55:28;98763.25;;;27.34;54.44
55604;BME280;41468;48.838;9.330;2022-07-21T10:58:10;98771.41;;;27.56;52.63
55604;BME280;41468;48.838;9.330;2022-07-21T11:00:48;98769.13;;;28.09;51.23
55604;BME280;41468;48.838;9.330;2022-07-21T11:03:26;98765.66;;;28.14;49.51
55604;BME280;41468;48.838;9.330;2022-07-21T11:06:13;98766.50;;;28.20;48.60
55604;BME280;41468;48.838;9.330;2022-07-21T11:08:53;98763.13;;;28.31;48.69
55604;BME280;41468;48.838;9.330;2022-07-21T11:11:35;98756.66;;;28.39;48.67
55604;BME280;41468;48.838;9.330;2022-07-21T11:14:11;98760.91;;;28.35;47.63
55604;BME280;41468;48.838;9.330;2022-07-21T11:17:12;98754.88;;;28.12;47.30
55604;BME280;41468;48.838;9.330;2022-07-21T11:19:53;98739.69;;;27.80;47.66
55604;BME280;41468;48.838;9.330;2022-07-21T11:22:25;98746.56;;;27.79;50.91
55604;BME280;41468;48.838;9.330;2022-07-21T11:24:56;98742.41;;;27.89;49.34
55604;BME280;41468;48.838;9.330;2022-07-21T11:27:29;98738.44;;;27.96;48.77
55604;BME280;41468;48.838;9.330;2022-07-21T11:30:01;98733.09;;;27.44;46.71
55604;BME280;41468;48.838;9.330;2022-07-21T11:32:34;98737.22;;;27.34;49.81
55604;BME280;41468;48.838;9.330;2022-07-21T11:35:06;98736.19;;;26.98;49.75
55604;BME280;41468;48.838;9.330;2022-07-21T11:37:38;98735.84;;;27.05;51.49
55604;BME280;41468;48.838;9.330;2022-07-21T11:40:10;98739.34;;;27.48;49.03
55604;BME280;41468;48.838;9.330;2022-07-21T11:42:42;98731.78;;;27.54;46.19
55604;BME280;41468;48.838;9.330;2022-07-21T11:45:13;98735.38;;;27.94;45.41
55604;BME280;41468;48.838;9.330;2022-07-21T11:47:48;98728.22;;;28.37;47.24
55604;BME280;41468;48.838;9.330;2022-07-21T11:50:19;98726.47;;;28.69;43.38
55604;BME280;41468;48.838;9.330;2022-07-21T11:52:49;98720.91;;;28.75;43.11
55604;BME280;41468;48.838;9.330;2022-07-21T11:55:19;98713.81;;;28.80;44.74
55604;BME280;41468;48.838;9.330;2022-07-21T11:57:49;98711.47;;;28.93;43.88
55604;BME280;41468;48.838;9.330;2022-07-21T12:00:19;98712.97;;;28.59;43.46
55604;BME280;41468;48.838;9.330;2022-07-21T12:02:51;98709.22;;;28.17;43.72
55604;BME280;41468;48.838;9.330;2022-07-21T12:05:23;98706.84;;;27.86;46.58
55604;BME280;41468;48.838;9.330;2022-07-21T12:07:53;98707.63;;;28.01;45.93
55604;BME280;41468;48.838;9.330;2022-07-21T12:10:25;98709.59;;;28.25;45.86
55604;BME280;41468;48.838;9.330;2022-07-21T12:12:58;98701.84;;;28.05;45.52
55604;BME280;41468;48.838;9.330;2022-07-21T12:15:30;98708.69;;;27.89;45.89
55604;BME280;41468;48.838;9.330;2022-07-21T12:18:06;98706.81;;;27.56;46.10
55604;BME280;41468;48.838;9.330;2022-07-21T12:20:37;98704.00;;;27.56;47.15
55604;BME280;41468;48.838;9.330;2022-07-21T12:23:19;98699.16;;;27.57;47.80
55604;BME280;41468;48.838;9.330;2022-07-21T12:25:49;98704.69;;;27.42;45.58
55604;BME280;41468;48.838;9.330;2022-07-21T12:28:43;98695.16;;;27.49;45.88
55604;BME280;41468;48.838;9.330;2022-07-21T12:31:15;98696.81;;;27.55;47.63
55604;BME280;41468;48.838;9.330;2022-07-21T12:33:52;98698.13;;;27.45;48.35
55604;BME280;41468;48.838;9.330;2022-07-21T12:36:42;98698.38;;;27.56;45.49
55604;BME280;41468;48.838;9.330;2022-07-21T12:39:14;98707.47;;;27.51;46.65
55604;BME280;41468;48.838;9.330;2022-07-21T12:42:05;98703.16;;;27.41;47.62
55604;BME280;41468;48.838;9.330;2022-07-21T12:44:36;98692.06;;;27.23;47.73
55604;BME280;41468;48.838;9.330;2022-07-21T12:47:15;98697.47;;;27.26;48.38
55604;BME280;41468;48.838;9.330;2022-07-21T12:49:59;98690.03;;;27.47;46.86
55604;BME280;41468;48.838;9.330;2022-07-21T12:52:40;98703.75;;;27.45;47.35
55604;BME280;41468;48.838;9.330;2022-07-21T12:55:10;98711.91;;;27.43;48.52
55604;BME280;41468;48.838;9.330;2022-07-21T12:57:40;98710.50;;;27.38;47.02
55604;BME280;41468;48.838;9.330;2022-07-21T13:00:10;98711.34;;;27.30;47.54
55604;BME280;41468;48.838;9.330;2022-07-21T13:02:48;98699.41;;;27.44;47.40
55604;BME280;41468;48.838;9.330;2022-07-21T13:05:21;98698.78;;;27.79;47.26
55604;BME280;41468;48.838;9.330;2022-07-21T13:07:52;98696.81;;;28.09;47.45
55604;BME280;41468;48.838;9.330;2022-07-21T13:10:22;98704.81;;;28.01;46.70
55604;BME280;41468;48.838;9.330;2022-07-21T13:12:52;98690.72;;;28.11;46.48
55604;BME280;41468;48.838;9.330;2022-07-21T13:15:21;98697.56;;;28.39;45.36
55604;BME280;41468;48.838;9.330;2022-07-21T13:17:51;98702.22;;;28.27;45.32
55604;BME280;41468;48.838;9.330;2022-07-21T13:20:24;98699.03;;;28.05;44.66